sensor_id;sensor_type;location;lat;lon;timestamp;temperature;humidity
17027;DHT22;8630;50.500;12.164;2022-07-03T00:00:08;15.10;99.90
17027;DHT22;8630;50.500;12.164;2022-07-03T00:02:40;15.10;99.90
17027;DHT22;8630;50.500;12.164;2022-07-03T00:05:07;15.00;99.90
17027;DHT22;8630;50.500;12.164;2022-07-03T00:07:38;15.00;99.90
17027;DHT22;8630;50.500;12.164;2022-07-03T00:10:06;15.00;99.90
17027;DHT22;8630;50.500;12.164;2022-07-03T00:12:34;15.10;99.90
17027;DHT22;8630;50.500;12.164;2022-07-03T00:15:01;15.00;99.90
17027;DHT22;8630;50.500;12.164;2022-07-03T00:17:29;15.00;99.90
17027;DHT22;8630;50.500;12.164;2022-07-03T00:19:57;15.00;99.90
17027;DHT22;8630;50.500;12.164;2022-07-03T00:22:24;15.00;99.90
17027;DHT22;8630;50.500;12.164;2022-07-03T00:24:54;15.00;99.90
17027;DHT22;8630;50.500;12.164;2022-07-03T00:27:25;15.00;99.90
17027;DHT22;8630;50.500;12.164;2022-07-03T00:29:55;15.00;99.90
17027;DHT22;8630;50.500;12.164;2022-07-03T00:32:23;15.00;99.90
17027;DHT22;8630;50.500;12.164;2022-07-03T00:34:52;15.00;99.90
17027;DHT22;8630;50.500;12.164;2022-07-03T00:37:21;15.00;99.90
17027;DHT22;8630;50.500;12.164;2022-07-03T00:39:49;15.00;99.90
17027;DHT22;8630;50.500;12.164;2022-07-03T00:42:16;15.00;99.90
17027;DHT22;8630;50.500;12.164;2022-07-03T00:44:45;15.00;99.90
17027;DHT22;8630;50.500;12.164;2022-07-03T00:47:14;15.00;99.90
17027;DHT22;8630;50.500;12.164;2022-07-03T00:49:45;14.90;99.90
17027;DHT22;8630;50.500;12.164;2022-07-03T00:52:13;15.00;99.90
17027;DHT22;8630;50.500;12.164;2022-07-03T00:54:45;14.90;99.90
17027;DHT22;8630;50.500;12.164;2022-07-03T00:57:17;14.90;99.90
17027;DHT22;8630;50.500;12.164;2022-07-03T00:59:45;14.90;99.90
17027;DHT22;8630;50.500;12.164;2022-07-03T01:02:19;14.90;99.90
17027;DHT22;8630;50.500;12.164;2022-07-03T01:04:52;14.90;99.90
17027;DHT22;8630;50.500;12.164;2022-07-03T01:07:31;14.80;99.90
17027;DHT22;8630;50.500;12.164;2022-07-03T01:10:04;14.90;99.90
17027;DHT22;8630;50.500;12.164;2022-07-03T01:12:38;14.80;99.90
17027;DHT22;8630;50.500;12.164;2022-07-03T01:15:11;14.80;99.90
17027;DHT22;8630;50.500;12.164;2022-07-03T01:17:40;14.80;99.90
17027;DHT22;8630;50.500;12.164;2022-07-03T01:20:11;14.80;99.90
17027;DHT22;8630;50.500;12.164;2022-07-03T01:22:43;14.80;99.90
17027;DHT22;8630;50.500;12.164;2022-07-03T01:25:15;14.80;99.90
17027;DHT22;8630;50.500;12.164;2022-07-03T01:27:56;14.80;99.90
17027;DHT22;8630;50.500;12.164;2022-07-03T01:30:25;14.80;99.90
17027;DHT22;8630;50.500;12.164;2022-07-03T01:32:57;14.70;99.90
17027;DHT22;8630;50.500;12.164;2022-07-03T01:35:28;14.70;99.90
17027;DHT22;8630;50.500;12.164;2022-07-03T01:37:57;14.70;99.90
17027;DHT22;8630;50.500;12.164;2022-07-03T01:40:28;14.70;99.90
17027;DHT22;8630;50.500;12.164;2022-07-03T01:42:59;14.70;99.90
17027;DHT22;8630;50.500;12.164;2022-07-03T01:45:28;14.70;99.90
17027;DHT22;8630;50.500;12.164;2022-07-03T01:47:56;14.80;99.90
17027;DHT22;8630;50.500;12.164;2022-07-03T01:50:24;14.80;99.90
17027;DHT22;8630;50.500;12.164;2022-07-03T01:52:53;14.80;99.90
17027;DHT22;8630;50.500;12.164;2022-07-03T01:55:21;14.80;99.90
17027;DHT22;8630;50.500;12.164;2022-07-03T01:57:50;14.80;99.90
17027;DHT22;8630;50.500;12.164;2022-07-03T02:00:21;14.80;99.90
17027;DHT22;8630;50.500;12.164;2022-07-03T02:02:54;14.80;99.90
17027;DHT22;8630;50.500;12.164;2022-07-03T02:08:15;14.80;99.90
17027;DHT22;8630;50.500;12.164;2022-07-03T02:10:47;14.90;99.90
17027;DHT22;8630;50.500;12.164;2022-07-03T02:13:23;14.90;99.90
17027;DHT22;8630;50.500;12.164;2022-07-03T02:15:51;14.80;99.90
17027;DHT22;8630;50.500;12.164;2022-07-03T02:18:26;14.90;99.90
17027;DHT22;8630;50.500;12.164;2022-07-03T02:21:07;14.90;99.90
17027;DHT22;8630;50.500;12.164;2022-07-03T02:23:45;14.90;99.90
17027;DHT22;8630;50.500;12.164;2022-07-03T02:26:16;14.90;99.90
17027;DHT22;8630;50.500;12.164;2022-07-03T02:28:56;14.90;99.90
17027;DHT22;8630;50.500;12.164;2022-07-03T02:31:26;14.90;99.90
17027;DHT22;8630;50.500;12.164;2022-07-03T02:33:57;15.00;99.90
17027;DHT22;8630;50.500;12.164;2022-07-03T02:36:28;15.00;99.90
17027;DHT22;8630;50.500;12.164;2022-07-03T02:38:56;15.00;99.90
17027;DHT22;8630;50.500;12.164;2022-07-03T02:41:29;14.90;99.90
17027;DHT22;8630;50.500;12.164;2022-07-03T02:44:11;14.90;99.90
17027;DHT22;8630;50.500;12.164;2022-07-03T02:46:49;15.00;99.90
17027;DHT22;8630;50.500;12.164;2022-07-03T02:49:27;15.00;99.90
17027;DHT22;8630;50.500;12.164;2022-07-03T02:52:08;15.00;99.90
17027;DHT22;8630;50.500;12.164;2022-07-03T02:54:43;15.00;99.90
17027;DHT22;8630;50.500;12.164;2022-07-03T02:57:13;15.00;99.90
17027;DHT22;8630;50.500;12.164;2022-07-03T02:59:51;14.90;99.90
17027;DHT22;8630;50.500;12.164;2022-07-03T03:02:30;15.00;99.90
17027;DHT22;8630;50.500;12.164;2022-07-03T03:05:05;15.00;99.90
17027;DHT22;8630;50.500;12.164;2022-07-03T03:07:35;15.00;99.90
17027;DHT22;8630;50.500;12.164;2022-07-03T03:10:08;15.00;99.90
17027;DHT22;8630;50.500;12.164;2022-07-03T03:12:36;15.00;99.90
17027;DHT22;8630;50.500;12.164;2022-07-03T03:15:05;15.00;99.90
17027;DHT22;8630;50.500;12.164;2022-07-03T03:17:41;15.10;99.90
17027;DHT22;8630;50.500;12.164;2022-07-03T03:20:09;15.10;99.90
17027;DHT22;8630;50.500;12.164;2022-07-03T03:22:54;15.10;99.90
17027;DHT22;8630;50.500;12.164;2022-07-03T03:25:25;15.10;99.90
17027;DHT22;8630;50.500;12.164;2022-07-03T03:27:52;15.20;99.90
17027;DHT22;8630;50.500;12.164;2022-07-03T03:30:21;15.40;99.90
17027;DHT22;8630;50.500;12.164;2022-07-03T03:32:49;15.60;99.90
17027;DHT22;8630;50.500;12.164;2022-07-03T03:35:16;16.00;99.90
17027;DHT22;8630;50.500;12.164;2022-07-03T03:37:45;16.30;99.90
17027;DHT22;8630;50.500;12.164;2022-07-03T03:40:15;16.40;99.90
17027;DHT22;8630;50.500;12.164;2022-07-03T03:42:42;16.40;99.90
17027;DHT22;8630;50.500;12.164;2022-07-03T03:45:10;16.40;99.90
17027;DHT22;8630;50.500;12.164;2022-07-03T03:47:37;16.50;99.90
17027;DHT22;8630;50.500;12.164;2022-07-03T03:50:06;16.50;99.90
17027;DHT22;8630;50.500;12.164;2022-07-03T03:52:33;16.60;99.90
17027;DHT22;8630;50.500;12.164;2022-07-03T03:55:00;16.70;99.90
17027;DHT22;8630;50.500;12.164;2022-07-03T03:57:27;16.80;99.90
17027;DHT22;8630;50.500;12.164;2022-07-03T03:59:55;17.00;99.90
17027;DHT22;8630;50.500;12.164;2022-07-03T04:02:22;17.30;99.90
17027;DHT22;8630;50.500;12.164;2022-07-03T04:04:49;17.70;99.90
17027;DHT22;8630;50.500;12.164;2022-07-03T04:07:18;17.80;99.80
17027;DHT22;8630;50.500;12.164;2022-07-03T04:09:45;18.10;99.70
17027;DHT22;8630;50.500;12.164;2022-07-03T04:12:12;18.30;99.10
17027;DHT22;8630;50.500;12.164;2022-07-03T04:14:39;18.50;98.70
17027;DHT22;8630;50.500;12.164;2022-07-03T04:17:06;18.70;98.50
17027;DHT22;8630;50.500;12.164;2022-07-03T04:19:33;19.10;97.90
17027;DHT22;8630;50.500;12.164;2022-07-03T04:22:01;19.20;97.30
17027;DHT22;8630;50.500;12.164;2022-07-03T04:24:29;19.30;96.90
17027;DHT22;8630;50.500;12.164;2022-07-03T04:26:56;19.40;96.60
17027;DHT22;8630;50.500;12.164;2022-07-03T04:29:23;19.60;96.40
17027;DHT22;8630;50.500;12.164;2022-07-03T04:31:50;20.00;96.30
17027;DHT22;8630;50.500;12.164;2022-07-03T04:34:17;21.30;95.50
17027;DHT22;8630;50.500;12.164;2022-07-03T04:36:44;23.00;93.90
17027;DHT22;8630;50.500;12.164;2022-07-03T04:39:11;25.10;91.30
17027;DHT22;8630;50.500;12.164;2022-07-03T04:41:40;27.30;85.10
17027;DHT22;8630;50.500;12.164;2022-07-03T04:44:07;29.40;75.50
17027;DHT22;8630;50.500;12.164;2022-07-03T04:46:34;31.20;65.20
17027;DHT22;8630;50.500;12.164;2022-07-03T04:49:01;33.00;56.40
17027;DHT22;8630;50.500;12.164;2022-07-03T04:51:28;34.50;50.20
17027;DHT22;8630;50.500;12.164;2022-07-03T04:53:55;35.90;45.80
17027;DHT22;8630;50.500;12.164;2022-07-03T04:56:22;37.20;42.30
17027;DHT22;8630;50.500;12.164;2022-07-03T04:58:50;38.50;39.30
17027;DHT22;8630;50.500;12.164;2022-07-03T05:01:17;39.70;36.50
17027;DHT22;8630;50.500;12.164;2022-07-03T05:03:44;40.90;34.60
17027;DHT22;8630;50.500;12.164;2022-07-03T05:06:11;41.90;32.60
17027;DHT22;8630;50.500;12.164;2022-07-03T05:08:38;43.00;31.00
17027;DHT22;8630;50.500;12.164;2022-07-03T05:11:05;43.90;29.80
17027;DHT22;8630;50.500;12.164;2022-07-03T05:13:32;44.80;28.80
17027;DHT22;8630;50.500;12.164;2022-07-03T05:16:00;45.40;27.90
17027;DHT22;8630;50.500;12.164;2022-07-03T05:18:27;45.90;27.20
17027;DHT22;8630;50.500;12.164;2022-07-03T05:20:54;46.10;26.90
17027;DHT22;8630;50.500;12.164;2022-07-03T05:23:21;46.30;26.50
17027;DHT22;8630;50.500;12.164;2022-07-03T05:25:48;46.50;26.30
17027;DHT22;8630;50.500;12.164;2022-07-03T05:28:15;46.80;25.90
17027;DHT22;8630;50.500;12.164;2022-07-03T05:30:42;47.20;25.60
17027;DHT22;8630;50.500;12.164;2022-07-03T05:33:11;47.50;25.40
17027;DHT22;8630;50.500;12.164;2022-07-03T05:35:38;47.80;25.10
17027;DHT22;8630;50.500;12.164;2022-07-03T05:38:05;48.00;24.70
17027;DHT22;8630;50.500;12.164;2022-07-03T05:40:32;48.50;24.60
17027;DHT22;8630;50.500;12.164;2022-07-03T05:42:59;48.70;24.20
17027;DHT22;8630;50.500;12.164;2022-07-03T05:45:26;48.90;23.90
17027;DHT22;8630;50.500;12.164;2022-07-03T05:47:53;49.00;23.80
17027;DHT22;8630;50.500;12.164;2022-07-03T05:50:22;49.10;23.60
17027;DHT22;8630;50.500;12.164;2022-07-03T05:52:49;49.10;23.30
17027;DHT22;8630;50.500;12.164;2022-07-03T05:55:16;49.00;23.40
17027;DHT22;8630;50.500;12.164;2022-07-03T05:57:44;49.10;23.30
17027;DHT22;8630;50.500;12.164;2022-07-03T06:00:14;49.10;23.40
17027;DHT22;8630;50.500;12.164;2022-07-03T06:02:41;49.30;23.40
17027;DHT22;8630;50.500;12.164;2022-07-03T06:05:08;49.40;23.40
17027;DHT22;8630;50.500;12.164;2022-07-03T06:07:37;49.50;23.00
17027;DHT22;8630;50.500;12.164;2022-07-03T06:10:05;49.80;22.70
17027;DHT22;8630;50.500;12.164;2022-07-03T06:12:32;50.00;22.70
17027;DHT22;8630;50.500;12.164;2022-07-03T06:14:59;49.50;22.60
17027;DHT22;8630;50.500;12.164;2022-07-03T06:17:26;49.30;22.80
17027;DHT22;8630;50.500;12.164;2022-07-03T06:19:53;49.40;22.80
17027;DHT22;8630;50.500;12.164;2022-07-03T06:22:20;49.30;23.00
17027;DHT22;8630;50.500;12.164;2022-07-03T06:24:48;48.90;23.00
17027;DHT22;8630;50.500;12.164;2022-07-03T06:27:15;48.80;23.00
17027;DHT22;8630;50.500;12.164;2022-07-03T06:29:42;48.60;23.10
17027;DHT22;8630;50.500;12.164;2022-07-03T06:32:09;47.90;23.30
17027;DHT22;8630;50.500;12.164;2022-07-03T06:34:36;46.10;24.20
17027;DHT22;8630;50.500;12.164;2022-07-03T06:37:04;43.70;25.40
17027;DHT22;8630;50.500;12.164;2022-07-03T06:39:31;41.30;26.60
17027;DHT22;8630;50.500;12.164;2022-07-03T06:42:00;39.20;28.10
17027;DHT22;8630;50.500;12.164;2022-07-03T06:44:27;37.30;29.80
17027;DHT22;8630;50.500;12.164;2022-07-03T06:46:54;35.70;31.30
17027;DHT22;8630;50.500;12.164;2022-07-03T06:49:22;34.40;32.80
17027;DHT22;8630;50.500;12.164;2022-07-03T06:51:49;33.40;34.40
17027;DHT22;8630;50.500;12.164;2022-07-03T06:54:16;32.50;35.80
17027;DHT22;8630;50.500;12.164;2022-07-03T06:56:43;31.70;36.60
17027;DHT22;8630;50.500;12.164;2022-07-03T06:59:12;31.00;37.70
17027;DHT22;8630;50.500;12.164;2022-07-03T07:01:39;30.30;39.10
17027;DHT22;8630;50.500;12.164;2022-07-03T07:04:06;29.70;40.10
17027;DHT22;8630;50.500;12.164;2022-07-03T07:06:33;29.20;41.10
17027;DHT22;8630;50.500;12.164;2022-07-03T07:09:00;28.80;41.80
17027;DHT22;8630;50.500;12.164;2022-07-03T07:11:27;28.30;42.50
17027;DHT22;8630;50.500;12.164;2022-07-03T07:13:54;28.00;43.40
17027;DHT22;8630;50.500;12.164;2022-07-03T07:16:23;27.80;44.00
17027;DHT22;8630;50.500;12.164;2022-07-03T07:18:50;27.60;44.50
17027;DHT22;8630;50.500;12.164;2022-07-03T07:21:17;27.50;45.20
17027;DHT22;8630;50.500;12.164;2022-07-03T07:23:44;27.40;45.80
17027;DHT22;8630;50.500;12.164;2022-07-03T07:26:11;27.20;45.80
17027;DHT22;8630;50.500;12.164;2022-07-03T07:28:38;27.10;46.30
17027;DHT22;8630;50.500;12.164;2022-07-03T07:31:06;27.10;46.70
17027;DHT22;8630;50.500;12.164;2022-07-03T07:33:34;27.00;47.00
17027;DHT22;8630;50.500;12.164;2022-07-03T07:36:01;27.00;47.20
17027;DHT22;8630;50.500;12.164;2022-07-03T07:38:29;26.90;47.30
17027;DHT22;8630;50.500;12.164;2022-07-03T07:40:56;27.00;47.30
17027;DHT22;8630;50.500;12.164;2022-07-03T07:43:23;27.00;47.30
17027;DHT22;8630;50.500;12.164;2022-07-03T07:45:50;27.00;47.40
17027;DHT22;8630;50.500;12.164;2022-07-03T07:48:18;27.00;47.60
17027;DHT22;8630;50.500;12.164;2022-07-03T07:50:49;27.00;47.70
17027;DHT22;8630;50.500;12.164;2022-07-03T07:53:17;27.10;47.50
17027;DHT22;8630;50.500;12.164;2022-07-03T07:55:44;27.10;47.40
17027;DHT22;8630;50.500;12.164;2022-07-03T07:58:11;27.10;47.40
17027;DHT22;8630;50.500;12.164;2022-07-03T08:00:38;27.10;47.60
17027;DHT22;8630;50.500;12.164;2022-07-03T08:03:25;27.10;47.70
17027;DHT22;8630;50.500;12.164;2022-07-03T08:06:11;27.20;47.90
17027;DHT22;8630;50.500;12.164;2022-07-03T08:08:38;27.20;48.10
17027;DHT22;8630;50.500;12.164;2022-07-03T08:11:06;27.30;47.90
17027;DHT22;8630;50.500;12.164;2022-07-03T08:13:33;27.30;47.90
17027;DHT22;8630;50.500;12.164;2022-07-03T08:16:00;27.30;48.10
17027;DHT22;8630;50.500;12.164;2022-07-03T08:18:29;27.30;48.30
17027;DHT22;8630;50.500;12.164;2022-07-03T08:20:56;27.40;48.30
17027;DHT22;8630;50.500;12.164;2022-07-03T08:23:24;27.40;48.10
17027;DHT22;8630;50.500;12.164;2022-07-03T08:25:51;27.50;48.20
17027;DHT22;8630;50.500;12.164;2022-07-03T08:28:20;27.50;48.60
17027;DHT22;8630;50.500;12.164;2022-07-03T08:30:47;27.50;48.80
17027;DHT22;8630;50.500;12.164;2022-07-03T08:33:14;27.50;48.70
17027;DHT22;8630;50.500;12.164;2022-07-03T08:35:41;27.50;48.50
17027;DHT22;8630;50.500;12.164;2022-07-03T08:38:08;27.60;48.60
17027;DHT22;8630;50.500;12.164;2022-07-03T08:40:37;27.60;48.80
17027;DHT22;8630;50.500;12.164;2022-07-03T08:43:05;27.70;49.20
17027;DHT22;8630;50.500;12.164;2022-07-03T08:45:33;27.70;48.50
17027;DHT22;8630;50.500;12.164;2022-07-03T08:48:02;27.70;49.00
17027;DHT22;8630;50.500;12.164;2022-07-03T08:50:33;27.80;48.60
17027;DHT22;8630;50.500;12.164;2022-07-03T08:53:00;27.90;48.00
17027;DHT22;8630;50.500;12.164;2022-07-03T08:55:28;27.90;47.40
17027;DHT22;8630;50.500;12.164;2022-07-03T08:57:58;27.90;47.10
17027;DHT22;8630;50.500;12.164;2022-07-03T09:00:27;27.90;46.60
17027;DHT22;8630;50.500;12.164;2022-07-03T09:02:55;27.90;46.70
17027;DHT22;8630;50.500;12.164;2022-07-03T09:05:23;27.90;46.70
17027;DHT22;8630;50.500;12.164;2022-07-03T09:07:51;27.90;46.60
17027;DHT22;8630;50.500;12.164;2022-07-03T09:10:19;28.00;46.10
17027;DHT22;8630;50.500;12.164;2022-07-03T09:12:47;28.00;45.80
17027;DHT22;8630;50.500;12.164;2022-07-03T09:15:16;28.10;46.10
17027;DHT22;8630;50.500;12.164;2022-07-03T09:17:56;28.10;46.00
17027;DHT22;8630;50.500;12.164;2022-07-03T09:20:29;28.20;46.00
17027;DHT22;8630;50.500;12.164;2022-07-03T09:23:08;28.20;46.00
17027;DHT22;8630;50.500;12.164;2022-07-03T09:25:53;28.30;46.40
17027;DHT22;8630;50.500;12.164;2022-07-03T09:28:21;28.30;46.20
17027;DHT22;8630;50.500;12.164;2022-07-03T09:31:01;28.40;46.10
17027;DHT22;8630;50.500;12.164;2022-07-03T09:33:28;28.40;46.00
17027;DHT22;8630;50.500;12.164;2022-07-03T09:35:56;28.40;46.00
17027;DHT22;8630;50.500;12.164;2022-07-03T09:38:23;28.50;46.00
17027;DHT22;8630;50.500;12.164;2022-07-03T09:40:52;28.70;46.20
17027;DHT22;8630;50.500;12.164;2022-07-03T09:43:24;28.80;46.30
17027;DHT22;8630;50.500;12.164;2022-07-03T09:45:55;28.90;46.30
17027;DHT22;8630;50.500;12.164;2022-07-03T09:48:28;29.10;46.50
17027;DHT22;8630;50.500;12.164;2022-07-03T09:51:18;29.40;46.60
17027;DHT22;8630;50.500;12.164;2022-07-03T09:53:52;29.50;46.00
17027;DHT22;8630;50.500;12.164;2022-07-03T09:56:20;29.70;45.90
17027;DHT22;8630;50.500;12.164;2022-07-03T09:59:02;29.80;45.50
17027;DHT22;8630;50.500;12.164;2022-07-03T10:01:30;29.90;44.90
17027;DHT22;8630;50.500;12.164;2022-07-03T10:04:11;30.00;44.90
17027;DHT22;8630;50.500;12.164;2022-07-03T10:06:55;30.10;44.70
17027;DHT22;8630;50.500;12.164;2022-07-03T10:09:24;30.30;44.50
17027;DHT22;8630;50.500;12.164;2022-07-03T10:11:51;30.50;44.10
17027;DHT22;8630;50.500;12.164;2022-07-03T10:14:20;30.60;43.60
17027;DHT22;8630;50.500;12.164;2022-07-03T10:16:48;30.70;43.70
17027;DHT22;8630;50.500;12.164;2022-07-03T10:19:19;30.70;43.20
17027;DHT22;8630;50.500;12.164;2022-07-03T10:21:52;30.60;43.20
17027;DHT22;8630;50.500;12.164;2022-07-03T10:24:22;30.60;43.50
17027;DHT22;8630;50.500;12.164;2022-07-03T10:26:50;30.60;42.60
17027;DHT22;8630;50.500;12.164;2022-07-03T10:29:20;30.70;42.00
17027;DHT22;8630;50.500;12.164;2022-07-03T10:31:49;30.90;41.60
17027;DHT22;8630;50.500;12.164;2022-07-03T10:34:19;31.00;41.30
17027;DHT22;8630;50.500;12.164;2022-07-03T10:36:51;31.00;40.90
17027;DHT22;8630;50.500;12.164;2022-07-03T10:39:26;31.00;40.80
17027;DHT22;8630;50.500;12.164;2022-07-03T10:41:57;30.80;41.20
17027;DHT22;8630;50.500;12.164;2022-07-03T10:45:02;30.70;41.70
17027;DHT22;8630;50.500;12.164;2022-07-03T10:47:43;30.80;41.90
17027;DHT22;8630;50.500;12.164;2022-07-03T10:50:15;31.00;41.40
17027;DHT22;8630;50.500;12.164;2022-07-03T10:52:43;31.20;41.40
17027;DHT22;8630;50.500;12.164;2022-07-03T10:55:12;31.30;41.20
17027;DHT22;8630;50.500;12.164;2022-07-03T10:57:40;31.20;41.20
17027;DHT22;8630;50.500;12.164;2022-07-03T11:00:14;31.20;41.40
17027;DHT22;8630;50.500;12.164;2022-07-03T11:02:42;31.30;41.20
17027;DHT22;8630;50.500;12.164;2022-07-03T11:05:16;31.40;41.30
17027;DHT22;8630;50.500;12.164;2022-07-03T11:08:07;31.40;41.10
17027;DHT22;8630;50.500;12.164;2022-07-03T11:10:36;31.60;40.70
17027;DHT22;8630;50.500;12.164;2022-07-03T11:13:15;31.60;40.80
17027;DHT22;8630;50.500;12.164;2022-07-03T11:15:44;31.60;40.40
17027;DHT22;8630;50.500;12.164;2022-07-03T11:18:26;31.50;40.40
17027;DHT22;8630;50.500;12.164;2022-07-03T11:21:33;31.60;40.40
17027;DHT22;8630;50.500;12.164;2022-07-03T11:24:18;31.60;40.00
17027;DHT22;8630;50.500;12.164;2022-07-03T11:26:46;31.50;40.30
17027;DHT22;8630;50.500;12.164;2022-07-03T11:29:36;31.50;40.00
17027;DHT22;8630;50.500;12.164;2022-07-03T11:35:06;31.60;39.90
17027;DHT22;8630;50.500;12.164;2022-07-03T11:37:39;31.60;39.20
17027;DHT22;8630;50.500;12.164;2022-07-03T11:40:07;31.60;38.90
17027;DHT22;8630;50.500;12.164;2022-07-03T11:42:35;31.50;39.30
17027;DHT22;8630;50.500;12.164;2022-07-03T11:45:02;31.40;40.00
17027;DHT22;8630;50.500;12.164;2022-07-03T11:47:30;31.30;40.10
17027;DHT22;8630;50.500;12.164;2022-07-03T11:49:58;31.20;40.10
17027;DHT22;8630;50.500;12.164;2022-07-03T11:52:32;31.20;40.60
17027;DHT22;8630;50.500;12.164;2022-07-03T11:55:01;31.30;40.40
17027;DHT22;8630;50.500;12.164;2022-07-03T11:57:29;31.30;40.00
17027;DHT22;8630;50.500;12.164;2022-07-03T12:00:04;31.20;39.60
17027;DHT22;8630;50.500;12.164;2022-07-03T12:02:48;31.20;39.60
17027;DHT22;8630;50.500;12.164;2022-07-03T12:05:15;31.10;40.00
17027;DHT22;8630;50.500;12.164;2022-07-03T12:07:42;31.10;40.20
17027;DHT22;8630;50.500;12.164;2022-07-03T12:10:11;31.20;39.60
17027;DHT22;8630;50.500;12.164;2022-07-03T12:12:38;31.30;39.00
17027;DHT22;8630;50.500;12.164;2022-07-03T12:15:05;31.30;38.70
17027;DHT22;8630;50.500;12.164;2022-07-03T12:17:32;31.30;38.90
17027;DHT22;8630;50.500;12.164;2022-07-03T12:20:01;31.40;39.00
17027;DHT22;8630;50.500;12.164;2022-07-03T12:22:30;31.40;38.50
17027;DHT22;8630;50.500;12.164;2022-07-03T12:24:59;31.20;38.00
17027;DHT22;8630;50.500;12.164;2022-07-03T12:27:30;31.10;38.10
17027;DHT22;8630;50.500;12.164;2022-07-03T12:29:58;30.90;38.30
17027;DHT22;8630;50.500;12.164;2022-07-03T12:32:26;30.80;38.50
17027;DHT22;8630;50.500;12.164;2022-07-03T12:34:55;30.90;38.90
17027;DHT22;8630;50.500;12.164;2022-07-03T12:37:31;31.00;38.90
17027;DHT22;8630;50.500;12.164;2022-07-03T12:39:59;31.10;38.50
17027;DHT22;8630;50.500;12.164;2022-07-03T12:42:27;31.10;38.20
17027;DHT22;8630;50.500;12.164;2022-07-03T12:44:55;31.00;37.90
17027;DHT22;8630;50.500;12.164;2022-07-03T12:47:24;30.80;38.10
17027;DHT22;8630;50.500;12.164;2022-07-03T12:49:55;30.70;38.30
17027;DHT22;8630;50.500;12.164;2022-07-03T12:52:23;30.60;38.80
17027;DHT22;8630;50.500;12.164;2022-07-03T12:54:51;30.70;38.70
17027;DHT22;8630;50.500;12.164;2022-07-03T12:57:18;30.90;38.30
17027;DHT22;8630;50.500;12.164;2022-07-03T13:00:06;31.10;38.20
17027;DHT22;8630;50.500;12.164;2022-07-03T13:02:33;31.00;37.70
17027;DHT22;8630;50.500;12.164;2022-07-03T13:05:02;30.80;37.70
17027;DHT22;8630;50.500;12.164;2022-07-03T13:07:40;30.80;38.10
17027;DHT22;8630;50.500;12.164;2022-07-03T13:10:08;30.80;38.40
17027;DHT22;8630;50.500;12.164;2022-07-03T13:12:45;31.00;38.80
17027;DHT22;8630;50.500;12.164;2022-07-03T13:15:14;31.10;39.00
17027;DHT22;8630;50.500;12.164;2022-07-03T13:18:00;31.30;38.80
17027;DHT22;8630;50.500;12.164;2022-07-03T13:20:30;31.50;38.80
17027;DHT22;8630;50.500;12.164;2022-07-03T13:22:59;31.60;38.80
17027;DHT22;8630;50.500;12.164;2022-07-03T13:25:27;31.70;38.80
17027;DHT22;8630;50.500;12.164;2022-07-03T13:28:03;31.70;38.70
17027;DHT22;8630;50.500;12.164;2022-07-03T13:30:32;31.80;38.70
17027;DHT22;8630;50.500;12.164;2022-07-03T13:32:59;31.90;38.10
17027;DHT22;8630;50.500;12.164;2022-07-03T13:35:26;31.90;37.70
17027;DHT22;8630;50.500;12.164;2022-07-03T13:37:54;32.00;37.30
17027;DHT22;8630;50.500;12.164;2022-07-03T13:40:21;32.00;37.10
17027;DHT22;8630;50.500;12.164;2022-07-03T13:42:48;32.00;37.50
17027;DHT22;8630;50.500;12.164;2022-07-03T13:45:15;32.00;37.30
17027;DHT22;8630;50.500;12.164;2022-07-03T13:47:44;32.00;36.90
17027;DHT22;8630;50.500;12.164;2022-07-03T13:50:11;32.10;37.50
17027;DHT22;8630;50.500;12.164;2022-07-03T13:52:38;32.10;36.60
17027;DHT22;8630;50.500;12.164;2022-07-03T13:55:06;32.10;36.60
17027;DHT22;8630;50.500;12.164;2022-07-03T13:57:33;32.10;36.60
17027;DHT22;8630;50.500;12.164;2022-07-03T14:00:00;32.10;36.30
17027;DHT22;8630;50.500;12.164;2022-07-03T14:02:35;32.20;36.60
17027;DHT22;8630;50.500;12.164;2022-07-03T14:05:04;32.20;36.10
17027;DHT22;8630;50.500;12.164;2022-07-03T14:07:31;32.20;36.00
17027;DHT22;8630;50.500;12.164;2022-07-03T14:09:58;32.20;35.10
17027;DHT22;8630;50.500;12.164;2022-07-03T14:12:25;32.20;34.70
17027;DHT22;8630;50.500;12.164;2022-07-03T14:14:52;32.20;34.40
17027;DHT22;8630;50.500;12.164;2022-07-03T14:17:19;32.20;34.30
17027;DHT22;8630;50.500;12.164;2022-07-03T14:19:46;32.10;34.10
17027;DHT22;8630;50.500;12.164;2022-07-03T14:22:15;32.10;34.20
17027;DHT22;8630;50.500;12.164;2022-07-03T14:24:42;32.10;34.30
17027;DHT22;8630;50.500;12.164;2022-07-03T14:27:08;32.20;34.50
17027;DHT22;8630;50.500;12.164;2022-07-03T14:29:53;32.20;34.00
17027;DHT22;8630;50.500;12.164;2022-07-03T14:32:38;32.20;34.00
17027;DHT22;8630;50.500;12.164;2022-07-03T14:35:07;32.20;33.70
17027;DHT22;8630;50.500;12.164;2022-07-03T14:37:35;32.20;33.70
17027;DHT22;8630;50.500;12.164;2022-07-03T14:40:03;32.20;33.80
17027;DHT22;8630;50.500;12.164;2022-07-03T14:42:30;32.30;33.90
17027;DHT22;8630;50.500;12.164;2022-07-03T14:44:57;32.20;33.60
17027;DHT22;8630;50.500;12.164;2022-07-03T14:47:24;32.10;33.60
17027;DHT22;8630;50.500;12.164;2022-07-03T14:49:51;32.00;33.80
17027;DHT22;8630;50.500;12.164;2022-07-03T14:52:18;32.00;33.90
17027;DHT22;8630;50.500;12.164;2022-07-03T14:54:47;32.10;33.90
17027;DHT22;8630;50.500;12.164;2022-07-03T14:57:36;32.10;34.20
17027;DHT22;8630;50.500;12.164;2022-07-03T15:00:09;32.20;34.30
17027;DHT22;8630;50.500;12.164;2022-07-03T15:02:48;32.30;34.20
17027;DHT22;8630;50.500;12.164;2022-07-03T15:05:16;32.40;34.10
17027;DHT22;8630;50.500;12.164;2022-07-03T15:07:49;32.30;34.40
17027;DHT22;8630;50.500;12.164;2022-07-03T15:10:23;32.40;34.60
17027;DHT22;8630;50.500;12.164;2022-07-03T15:12:52;32.40;34.70
17027;DHT22;8630;50.500;12.164;2022-07-03T15:15:20;32.40;34.70
17027;DHT22;8630;50.500;12.164;2022-07-03T15:17:49;32.30;34.90
17027;DHT22;8630;50.500;12.164;2022-07-03T15:20:18;32.10;35.00
17027;DHT22;8630;50.500;12.164;2022-07-03T15:22:47;32.00;35.30
17027;DHT22;8630;50.500;12.164;2022-07-03T15:25:17;32.00;35.30
17027;DHT22;8630;50.500;12.164;2022-07-03T15:27:49;32.00;35.50
17027;DHT22;8630;50.500;12.164;2022-07-03T15:30:17;32.00;35.50
17027;DHT22;8630;50.500;12.164;2022-07-03T15:32:45;32.10;35.40
17027;DHT22;8630;50.500;12.164;2022-07-03T15:35:13;32.20;35.40
17027;DHT22;8630;50.500;12.164;2022-07-03T15:37:55;32.20;35.50
17027;DHT22;8630;50.500;12.164;2022-07-03T15:40:27;32.30;35.40
17027;DHT22;8630;50.500;12.164;2022-07-03T15:43:12;32.40;35.40
17027;DHT22;8630;50.500;12.164;2022-07-03T15:45:50;32.40;35.20
17027;DHT22;8630;50.500;12.164;2022-07-03T15:48:31;32.40;35.30
17027;DHT22;8630;50.500;12.164;2022-07-03T15:51:05;32.30;35.00
17027;DHT22;8630;50.500;12.164;2022-07-03T15:53:39;32.20;35.00